sensor_id;sensor_type;location;lat;lon;timestamp;pressure;altitude;pressure_sealevel;temperature;humidity
8501;BME280;4288;48.484;10.024;2023-04-15T00:02:24;94612.78;;;19.10;53.15
8501;BME280;4288;48.484;10.024;2023-04-15T00:04:51;94613.25;;;19.08;53.15
8501;BME280;4288;48.484;10.024;2023-04-15T00:07:18;94607.06;;;19.08;52.80
8501;BME280;4288;48.484;10.024;2023-04-15T00:09:45;94612.19;;;19.06;53.08
8501;BME280;4288;48.484;10.024;2023-04-15T00:12:13;94608.75;;;19.05;52.83
8501;BME280;4288;48.484;10.024;2023-04-15T00:14:40;94609.66;;;19.02;52.78
8501;BME280;4288;48.484;10.024;2023-04-15T00:17:08;94613.13;;;19.03;52.93
8501;BME280;4288;48.484;10.024;2023-04-15T00:19:35;94612.81;;;19.01;52.83
8501;BME280;4288;48.484;10.024;2023-04-15T00:22:02;94616.28;;;19.01;53.15
8501;BME280;4288;48.484;10.024;2023-04-15T00:24:29;94617.50;;;19.00;52.84
8501;BME280;4288;48.484;10.024;2023-04-15T00:26:57;94607.88;;;18.99;53.09
8501;BME280;4288;48.484;10.024;2023-04-15T00:29:26;94609.06;;;18.98;52.86
8501;BME280;4288;48.484;10.024;2023-04-15T00:31:53;94608.78;;;18.96;52.85
8501;BME280;4288;48.484;10.024;2023-04-15T00:34:20;94611.19;;;18.94;52.83
8501;BME280;4288;48.484;10.024;2023-04-15T00:36:47;94610.00;;;18.95;53.02
8501;BME280;4288;48.484;10.024;2023-04-15T00:39:14;94602.75;;;18.92;53.13
8501;BME280;4288;48.484;10.024;2023-04-15T00:41:42;94601.28;;;18.91;52.91
8501;BME280;4288;48.484;10.024;2023-04-15T00:44:09;94601.28;;;18.91;52.79
8501;BME280;4288;48.484;10.024;2023-04-15T00:46:38;94595.84;;;18.91;52.93
8501;BME280;4288;48.484;10.024;2023-04-15T00:49:06;94590.16;;;18.89;53.10
8501;BME280;4288;48.484;10.024;2023-04-15T00:51:33;94595.25;;;18.87;53.03
8501;BME280;4288;48.484;10.024;2023-04-15T00:54:02;94597.22;;;18.87;53.04
8501;BME280;4288;48.484;10.024;2023-04-15T00:56:30;94588.34;;;18.86;53.11
8501;BME280;4288;48.484;10.024;2023-04-15T00:59:01;94593.00;;;18.86;52.85
8501;BME280;4288;48.484;10.024;2023-04-15T01:01:28;94589.56;;;18.85;53.06
8501;BME280;4288;48.484;10.024;2023-04-15T01:03:57;94587.75;;;18.82;52.96
8501;BME280;4288;48.484;10.024;2023-04-15T01:06:25;94593.91;;;18.83;53.11
8501;BME280;4288;48.484;10.024;2023-04-15T01:08:53;94590.47;;;18.82;53.00
8501;BME280;4288;48.484;10.024;2023-04-15T01:11:20;94588.19;;;18.81;52.99
8501;BME280;4288;48.484;10.024;2023-04-15T01:13:50;94591.38;;;18.79;53.02
8501;BME280;4288;48.484;10.024;2023-04-15T01:16:18;94591.38;;;18.79;52.86
8501;BME280;4288;48.484;10.024;2023-04-15T01:18:45;94585.66;;;18.77;53.02
8501;BME280;4288;48.484;10.024;2023-04-15T01:21:14;94590.78;;;18.75;52.72
8501;BME280;4288;48.484;10.024;2023-04-15T01:23:42;94583.41;;;18.76;52.87
8501;BME280;4288;48.484;10.024;2023-04-15T01:26:11;94586.56;;;18.74;52.65
8501;BME280;4288;48.484;10.024;2023-04-15T01:28:39;94589.72;;;18.73;53.04
8501;BME280;4288;48.484;10.024;2023-04-15T01:31:07;94590.94;;;18.72;53.13
8501;BME280;4288;48.484;10.024;2023-04-15T01:33:34;94594.09;;;18.70;52.73
8501;BME280;4288;48.484;10.024;2023-04-15T01:36:02;94585.97;;;18.70;52.86
8501;BME280;4288;48.484;10.024;2023-04-15T01:38:30;94589.13;;;18.68;53.01
8501;BME280;4288;48.484;10.024;2023-04-15T01:40:58;94585.69;;;18.68;52.90
8501;BME280;4288;48.484;10.024;2023-04-15T01:43:26;94588.38;;;18.68;52.86
8501;BME280;4288;48.484;10.024;2023-04-15T01:45:54;94586.13;;;18.67;53.04
8501;BME280;4288;48.484;10.024;2023-04-15T01:48:21;94588.56;;;18.64;53.02
8501;BME280;4288;48.484;10.024;2023-04-15T01:50:49;94583.88;;;18.65;53.10
8501;BME280;4288;48.484;10.024;2023-04-15T01:53:16;94583.56;;;18.63;52.96
8501;BME280;4288;48.484;10.024;2023-04-15T01:55:44;94587.50;;;18.62;52.46
8501;BME280;4288;48.484;10.024;2023-04-15T01:58:11;94584.03;;;18.61;52.82
8501;BME280;4288;48.484;10.024;2023-04-15T02:00:39;94582.53;;;18.60;53.09
8501;BME280;4288;48.484;10.024;2023-04-15T02:03:06;94584.19;;;18.58;52.98
8501;BME280;4288;48.484;10.024;2023-04-15T02:05:33;94578.78;;;18.58;52.94
8501;BME280;4288;48.484;10.024;2023-04-15T02:08:01;94580.72;;;18.57;52.88
8501;BME280;4288;48.484;10.024;2023-04-15T02:10:28;94567.66;;;18.56;52.96
8501;BME280;4288;48.484;10.024;2023-04-15T02:12:55;94569.59;;;18.55;52.71
8501;BME280;4288;48.484;10.024;2023-04-15T02:15:23;94572.78;;;18.54;52.72
8501;BME280;4288;48.484;10.024;2023-04-15T02:17:51;94572.78;;;18.54;52.97
8501;BME280;4288;48.484;10.024;2023-04-15T02:20:20;94573.22;;;18.52;52.98
8501;BME280;4288;48.484;10.024;2023-04-15T02:22:47;94576.38;;;18.51;52.67
8501;BME280;4288;48.484;10.024;2023-04-15T02:25:14;94569.47;;;18.50;53.09
8501;BME280;4288;48.484;10.024;2023-04-15T02:27:42;94561.81;;;18.48;52.86
8501;BME280;4288;48.484;10.024;2023-04-15T02:30:10;94569.16;;;18.48;53.16
8501;BME280;4288;48.484;10.024;2023-04-15T02:32:39;94563.00;;;18.47;52.66
8501;BME280;4288;48.484;10.024;2023-04-15T02:35:11;94566.16;;;18.46;52.93
8501;BME280;4288;48.484;10.024;2023-04-15T02:37:38;94566.16;;;18.46;52.97
8501;BME280;4288;48.484;10.024;2023-04-15T02:40:09;94571.28;;;18.44;52.96
8501;BME280;4288;48.484;10.024;2023-04-15T02:42:37;94572.78;;;18.45;53.08
8501;BME280;4288;48.484;10.024;2023-04-15T02:45:06;94573.22;;;18.43;53.08
8501;BME280;4288;48.484;10.024;2023-04-15T02:47:33;94568.25;;;18.42;52.96
8501;BME280;4288;48.484;10.024;2023-04-15T02:50:02;94572.91;;;18.41;53.34
8501;BME280;4288;48.484;10.024;2023-04-15T02:52:30;94581.78;;;18.42;53.13
8501;BME280;4288;48.484;10.024;2023-04-15T02:54:57;94572.91;;;18.41;53.33
8501;BME280;4288;48.484;10.024;2023-04-15T02:57:27;94580.72;;;18.39;53.27
8501;BME280;4288;48.484;10.024;2023-04-15T02:59:54;94577.28;;;18.39;53.01
8501;BME280;4288;48.484;10.024;2023-04-15T03:02:22;94581.16;;;18.38;53.30
8501;BME280;4288;48.484;10.024;2023-04-15T03:04:49;94576.22;;;18.36;53.17
8501;BME280;4288;48.484;10.024;2023-04-15T03:07:17;94575.47;;;18.36;53.43
8501;BME280;4288;48.484;10.024;2023-04-15T03:09:46;94573.97;;;18.35;53.21
8501;BME280;4288;48.484;10.024;2023-04-15T03:12:13;94577.13;;;18.33;53.05
8501;BME280;4288;48.484;10.024;2023-04-15T03:14:40;94575.16;;;18.34;53.20
8501;BME280;4288;48.484;10.024;2023-04-15T03:17:07;94573.66;;;18.33;53.07
8501;BME280;4288;48.484;10.024;2023-04-15T03:19:34;94574.84;;;18.32;53.29
8501;BME280;4288;48.484;10.024;2023-04-15T03:22:01;94565.25;;;18.31;52.93
8501;BME280;4288;48.484;10.024;2023-04-15T03:24:29;94564.50;;;18.30;53.12
8501;BME280;4288;48.484;10.024;2023-04-15T03:26:57;94566.91;;;18.28;53.05
8501;BME280;4288;48.484;10.024;2023-04-15T03:29:24;94572.31;;;18.28;53.15
8501;BME280;4288;48.484;10.024;2023-04-15T03:31:52;94564.66;;;18.27;53.31
8501;BME280;4288;48.484;10.024;2023-04-15T03:34:19;94569.31;;;18.26;52.93
8501;BME280;4288;48.484;10.024;2023-04-15T03:36:46;94576.66;;;18.26;53.21
8501;BME280;4288;48.484;10.024;2023-04-15T03:39:13;94571.72;;;18.24;53.16
8501;BME280;4288;48.484;10.024;2023-04-15T03:41:40;94573.66;;;18.24;53.22
8501;BME280;4288;48.484;10.024;2023-04-15T03:44:09;94562.84;;;18.24;53.27
8501;BME280;4288;48.484;10.024;2023-04-15T03:46:36;94573.34;;;18.22;53.09
8501;BME280;4288;48.484;10.024;2023-04-15T03:49:05;94575.75;;;18.20;53.09
8501;BME280;4288;48.484;10.024;2023-04-15T03:51:32;94566.91;;;18.19;53.11
8501;BME280;4288;48.484;10.024;2023-04-15T03:53:59;94566.63;;;18.17;53.13
8501;BME280;4288;48.484;10.024;2023-04-15T03:56:27;94560.44;;;18.17;52.95
8501;BME280;4288;48.484;10.024;2023-04-15T03:58:54;94565.84;;;18.17;53.08
8501;BME280;4288;48.484;10.024;2023-04-15T04:01:22;94558.97;;;18.16;52.99
8501;BME280;4288;48.484;10.024;2023-04-15T04:03:49;94569.78;;;18.16;52.96
8501;BME280;4288;48.484;10.024;2023-04-15T04:06:17;94565.56;;;18.15;53.03
8501;BME280;4288;48.484;10.024;2023-04-15T04:08:44;94564.06;;;18.14;52.99
8501;BME280;4288;48.484;10.024;2023-04-15T04:11:11;94564.06;;;18.14;52.92
8501;BME280;4288;48.484;10.024;2023-04-15T04:13:39;94567.19;;;18.12;52.87
8501;BME280;4288;48.484;10.024;2023-04-15T04:16:06;94565.72;;;18.11;53.07
8501;BME280;4288;48.484;10.024;2023-04-15T04:18:35;94566.91;;;18.10;52.90
8501;BME280;4288;48.484;10.024;2023-04-15T04:21:02;94568.13;;;18.09;53.11
8501;BME280;4288;48.484;10.024;2023-04-15T04:23:29;94560.47;;;18.08;53.06
8501;BME280;4288;48.484;10.024;2023-04-15T04:25:56;94563.16;;;18.08;52.99
8501;BME280;4288;48.484;10.024;2023-04-15T04:28:23;94565.56;;;18.06;53.10
8501;BME280;4288;48.484;10.024;2023-04-15T04:30:50;94568.25;;;18.06;52.92
8501;BME280;4288;48.484;10.024;2023-04-15T04:33:17;94570.22;;;18.05;53.13
8501;BME280;4288;48.484;10.024;2023-04-15T04:35:46;94566.00;;;18.04;53.07
8501;BME280;4288;48.484;10.024;2023-04-15T04:38:13;94571.84;;;18.03;53.12
8501;BME280;4288;48.484;10.024;2023-04-15T04:40:40;94575.00;;;18.01;52.87
8501;BME280;4288;48.484;10.024;2023-04-15T04:43:07;94571.56;;;18.01;53.03
8501;BME280;4288;48.484;10.024;2023-04-15T04:45:35;94570.06;;;18.00;52.81
8501;BME280;4288;48.484;10.024;2023-04-15T04:48:02;94575.94;;;17.98;52.94
8501;BME280;4288;48.484;10.024;2023-04-15T04:50:31;94567.81;;;17.98;53.05
8501;BME280;4288;48.484;10.024;2023-04-15T04:53:00;94575.16;;;17.98;53.13
8501;BME280;4288;48.484;10.024;2023-04-15T04:55:27;94578.31;;;17.96;52.95
8501;BME280;4288;48.484;10.024;2023-04-15T04:57:54;94574.88;;;17.96;53.12
8501;BME280;4288;48.484;10.024;2023-04-15T05:00:22;94575.31;;;17.94;53.08
8501;BME280;4288;48.484;10.024;2023-04-15T05:02:49;94573.81;;;17.93;53.06
8501;BME280;4288;48.484;10.024;2023-04-15T05:05:16;94578.44;;;17.93;53.07
8501;BME280;4288;48.484;10.024;2023-04-15T05:07:44;94579.66;;;17.92;52.97
8501;BME280;4288;48.484;10.024;2023-04-15T05:10:13;94580.84;;;17.91;53.08
8501;BME280;4288;48.484;10.024;2023-04-15T05:12:42;94585.53;;;17.90;52.81
8501;BME280;4288;48.484;10.024;2023-04-15T05:15:10;94577.56;;;17.96;52.79
8501;BME280;4288;48.484;10.024;2023-04-15T05:17:37;94576.06;;;17.95;52.58
8501;BME280;4288;48.484;10.024;2023-04-15T05:20:06;94578.75;;;17.95;52.84
8501;BME280;4288;48.484;10.024;2023-04-15T05:22:33;94576.81;;;17.95;52.77
8501;BME280;4288;48.484;10.024;2023-04-15T05:25:00;94573.34;;;17.95;52.99
8501;BME280;4288;48.484;10.024;2023-04-15T05:27:29;94584.63;;;17.93;52.95
8501;BME280;4288;48.484;10.024;2023-04-15T05:29:56;94584.16;;;17.95;52.71
8501;BME280;4288;48.484;10.024;2023-04-15T05:32:23;94585.69;;;17.96;52.90
8501;BME280;4288;48.484;10.024;2023-04-15T05:34:51;94593.78;;;17.96;52.97
8501;BME280;4288;48.484;10.024;2023-04-15T05:37:18;94594.56;;;17.96;53.27
8501;BME280;4288;48.484;10.024;2023-04-15T05:39:47;94598.28;;;17.99;53.45
8501;BME280;4288;48.484;10.024;2023-04-15T05:42:14;94601.44;;;17.97;54.00
8501;BME280;4288;48.484;10.024;2023-04-15T05:44:43;94596.19;;;18.03;54.08
8501;BME280;4288;48.484;10.024;2023-04-15T05:47:10;94599.19;;;18.05;53.97
8501;BME280;4288;48.484;10.024;2023-04-15T05:49:37;94595.47;;;18.11;54.29
8501;BME280;4288;48.484;10.024;2023-04-15T05:52:04;94609.28;;;18.13;53.79
8501;BME280;4288;48.484;10.024;2023-04-15T05:54:32;94598.47;;;18.13;54.32
8501;BME280;4288;48.484;10.024;2023-04-15T05:56:59;94602.66;;;18.14;54.14
8501;BME280;4288;48.484;10.024;2023-04-15T05:59:26;94600.41;;;18.13;54.41
8501;BME280;4288;48.484;10.024;2023-04-15T06:01:55;94600.09;;;18.11;54.30
8501;BME280;4288;48.484;10.024;2023-04-15T06:04:22;94610.94;;;18.11;54.50
8501;BME280;4288;48.484;10.024;2023-04-15T06:06:49;94607.75;;;17.94;52.08
8501;BME280;4288;48.484;10.024;2023-04-15T06:09:16;94605.28;;;17.60;51.08
8501;BME280;4288;48.484;10.024;2023-04-15T06:11:44;94612.66;;;17.68;52.88
8501;BME280;4288;48.484;10.024;2023-04-15T06:14:11;94603.63;;;17.62;51.75
8501;BME280;4288;48.484;10.024;2023-04-15T06:16:38;94609.31;;;17.55;51.19
8501;BME280;4288;48.484;10.024;2023-04-15T06:19:06;94612.78;;;17.56;52.69
8501;BME280;4288;48.484;10.024;2023-04-15T06:21:33;94607.25;;;17.68;52.49
8501;BME280;4288;48.484;10.024;2023-04-15T06:24:01;94604.09;;;17.70;52.34
8501;BME280;4288;48.484;10.024;2023-04-15T06:26:28;94602.72;;;17.65;52.77
8501;BME280;4288;48.484;10.024;2023-04-15T06:28:56;94606.81;;;17.70;52.67
8501;BME280;4288;48.484;10.024;2023-04-15T06:31:23;94608.78;;;17.78;52.41
8501;BME280;4288;48.484;10.024;2023-04-15T06:33:50;94609.97;;;17.87;52.31
8501;BME280;4288;48.484;10.024;2023-04-15T06:36:18;94613.91;;;17.95;52.23
8501;BME280;4288;48.484;10.024;2023-04-15T06:38:45;94610.47;;;18.03;51.84
8501;BME280;4288;48.484;10.024;2023-04-15T06:41:13;94607.91;;;18.09;51.68
8501;BME280;4288;48.484;10.024;2023-04-15T06:43:40;94613.34;;;18.18;51.58
8501;BME280;4288;48.484;10.024;2023-04-15T06:46:08;94607.63;;;18.25;51.41
8501;BME280;4288;48.484;10.024;2023-04-15T06:48:35;94608.22;;;18.38;51.51
8501;BME280;4288;48.484;10.024;2023-04-15T06:51:03;94601.03;;;18.44;51.20
8501;BME280;4288;48.484;10.024;2023-04-15T06:53:31;94610.66;;;18.54;51.00
8501;BME280;4288;48.484;10.024;2023-04-15T06:56:00;94606.91;;;18.60;50.95
8501;BME280;4288;48.484;10.024;2023-04-15T06:58:27;94609.28;;;18.67;50.93
8501;BME280;4288;48.484;10.024;2023-04-15T07:00:55;94613.38;;;19.14;50.42
8501;BME280;4288;48.484;10.024;2023-04-15T07:03:22;94620.59;;;19.91;48.08
8501;BME280;4288;48.484;10.024;2023-04-15T07:05:49;94613.91;;;19.78;48.62
8501;BME280;4288;48.484;10.024;2023-04-15T07:08:16;94623.97;;;19.53;49.20
8501;BME280;4288;48.484;10.024;2023-04-15T07:10:45;94619.66;;;19.38;49.72
8501;BME280;4288;48.484;10.024;2023-04-15T07:13:12;94614.13;;;19.32;49.61
8501;BME280;4288;48.484;10.024;2023-04-15T07:15:39;94605.53;;;19.34;49.96
8501;BME280;4288;48.484;10.024;2023-04-15T07:18:06;94611.25;;;19.36;49.57
8501;BME280;4288;48.484;10.024;2023-04-15T07:20:34;94610.47;;;19.35;49.45
8501;BME280;4288;48.484;10.024;2023-04-15T07:23:01;94610.16;;;19.42;49.27
8501;BME280;4288;48.484;10.024;2023-04-15T07:25:28;94601.25;;;19.75;48.69
8501;BME280;4288;48.484;10.024;2023-04-15T07:27:57;94607.69;;;20.33;47.44
8501;BME280;4288;48.484;10.024;2023-04-15T07:30:24;94607.81;;;20.54;46.73
8501;BME280;4288;48.484;10.024;2023-04-15T07:32:51;94614.44;;;20.38;46.90
8501;BME280;4288;48.484;10.024;2023-04-15T07:35:19;94604.63;;;20.70;46.58
8501;BME280;4288;48.484;10.024;2023-04-15T07:37:47;94598.19;;;20.96;45.74
8501;BME280;4288;48.484;10.024;2023-04-15T07:40:14;94600.25;;;20.72;46.01
8501;BME280;4288;48.484;10.024;2023-04-15T07:42:42;94601.53;;;20.62;46.49
8501;BME280;4288;48.484;10.024;2023-04-15T07:45:11;94608.41;;;20.72;46.52
8501;BME280;4288;48.484;10.024;2023-04-15T07:47:38;94601.34;;;21.53;45.47
8501;BME280;4288;48.484;10.024;2023-04-15T07:50:08;94595.91;;;22.48;43.00
8501;BME280;4288;48.484;10.024;2023-04-15T07:52:36;94597.56;;;22.20;43.73
8501;BME280;4288;48.484;10.024;2023-04-15T07:55:05;94601.19;;;22.11;43.84
8501;BME280;4288;48.484;10.024;2023-04-15T07:57:33;94600.53;;;21.33;45.54
8501;BME280;4288;48.484;10.024;2023-04-15T08:00:01;94602.69;;;20.85;46.27
8501;BME280;4288;48.484;10.024;2023-04-15T08:02:31;94598.63;;;20.51;47.46
8501;BME280;4288;48.484;10.024;2023-04-15T08:04:59;94599.44;;;20.42;48.13
8501;BME280;4288;48.484;10.024;2023-04-15T08:07:27;94594.41;;;20.50;47.82
8501;BME280;4288;48.484;10.024;2023-04-15T08:09:54;94595.88;;;20.36;48.18
8501;BME280;4288;48.484;10.024;2023-04-15T08:12:22;94596.16;;;20.24;48.47
8501;BME280;4288;48.484;10.024;2023-04-15T08:14:50;94607.31;;;20.17;48.88
8501;BME280;4288;48.484;10.024;2023-04-15T08:17:17;94598.31;;;20.11;49.32
8501;BME280;4288;48.484;10.024;2023-04-15T08:19:46;94598.31;;;20.11;49.30
8501;BME280;4288;48.484;10.024;2023-04-15T08:22:14;94597.53;;;20.19;49.40
8501;BME280;4288;48.484;10.024;2023-04-15T08:24:41;94600.81;;;20.23;49.48
8501;BME280;4288;48.484;10.024;2023-04-15T08:27:08;94600.34;;;20.25;49.27
8501;BME280;4288;48.484;10.024;2023-04-15T08:29:35;94603.16;;;20.30;49.69
8501;BME280;4288;48.484;10.024;2023-04-15T08:32:04;94606.16;;;20.32;49.23
8501;BME280;4288;48.484;10.024;2023-04-15T08:34:31;94597.56;;;20.34;49.29
8501;BME280;4288;48.484;10.024;2023-04-15T08:36:59;94597.19;;;20.41;49.43
8501;BME280;4288;48.484;10.024;2023-04-15T08:39:26;94600.78;;;20.47;49.34
8501;BME280;4288;48.484;10.024;2023-04-15T08:41:59;94597.59;;;20.49;49.28
8501;BME280;4288;48.484;10.024;2023-04-15T08:44:29;94592.72;;;20.53;49.40
8501;BME280;4288;48.484;10.024;2023-04-15T08:47:00;94599.69;;;20.54;49.48
8501;BME280;4288;48.484;10.024;2023-04-15T08:49:28;94599.78;;;20.59;49.19
8501;BME280;4288;48.484;10.024;2023-04-15T08:51:59;94594.53;;;20.70;48.96
8501;BME280;4288;48.484;10.024;2023-04-15T08:54:26;94593.91;;;20.75;49.08
8501;BME280;4288;48.484;10.024;2023-04-15T08:56:54;94586.56;;;20.81;48.12
8501;BME280;4288;48.484;10.024;2023-04-15T08:59:23;94587.41;;;20.87;48.52
8501;BME280;4288;48.484;10.024;2023-04-15T09:01:51;94585.25;;;20.91;48.35
8501;BME280;4288;48.484;10.024;2023-04-15T09:04:18;94586.59;;;20.96;48.51
8501;BME280;4288;48.484;10.024;2023-04-15T09:06:53;94580.06;;;21.02;48.49
8501;BME280;4288;48.484;10.024;2023-04-15T09:09:21;94580.88;;;21.08;48.21
8501;BME280;4288;48.484;10.024;2023-04-15T09:11:48;94586.59;;;21.10;47.95
8501;BME280;4288;48.484;10.024;2023-04-15T09:14:16;94585.84;;;21.10;48.12
8501;BME280;4288;48.484;10.024;2023-04-15T09:16:56;94582.09;;;21.07;48.53
8501;BME280;4288;48.484;10.024;2023-04-15T09:19:24;94580.88;;;21.08;48.81
8501;BME280;4288;48.484;10.024;2023-04-15T09:21:53;94591.09;;;21.13;48.60
8501;BME280;4288;48.484;10.024;2023-04-15T09:24:22;94591.84;;;21.14;48.43
8501;BME280;4288;48.484;10.024;2023-04-15T09:26:52;94586.41;;;21.14;48.34
8501;BME280;4288;48.484;10.024;2023-04-15T09:29:24;94600.75;;;21.14;48.56
8501;BME280;4288;48.484;10.024;2023-04-15T09:31:52;94597.56;;;21.16;48.68
8501;BME280;4288;48.484;10.024;2023-04-15T09:34:19;94596.91;;;21.21;48.35
8501;BME280;4288;48.484;10.024;2023-04-15T09:36:55;94600.66;;;21.23;48.10
8501;BME280;4288;48.484;10.024;2023-04-15T09:39:24;94602.34;;;21.21;48.47
8501;BME280;4288;48.484;10.024;2023-04-15T09:42:06;94603.72;;;21.16;48.84
8501;BME280;4288;48.484;10.024;2023-04-15T09:44:34;94608.31;;;21.10;49.20
8501;BME280;4288;48.484;10.024;2023-04-15T09:47:01;94609.06;;;20.96;48.25
8501;BME280;4288;48.484;10.024;2023-04-15T09:49:28;94612.44;;;20.91;49.34
8501;BME280;4288;48.484;10.024;2023-04-15T09:51:59;94614.56;;;20.87;48.39
8501;BME280;4288;48.484;10.024;2023-04-15T09:54:34;94612.63;;;20.88;48.44
8501;BME280;4288;48.484;10.024;2023-04-15T09:57:06;94608.22;;;20.90;49.30
8501;BME280;4288;48.484;10.024;2023-04-15T09:59:33;94610.00;;;20.93;49.59
8501;BME280;4288;48.484;10.024;2023-04-15T10:02:04;94605.78;;;20.92;49.72
8501;BME280;4288;48.484;10.024;2023-04-15T10:04:35;94611.78;;;20.96;49.59
8501;BME280;4288;48.484;10.024;2023-04-15T10:07:05;94606.34;;;20.96;49.32
8501;BME280;4288;48.484;10.024;2023-04-15T10:09:35;94615.16;;;20.91;49.45
8501;BME280;4288;48.484;10.024;2023-04-15T10:12:04;94616.38;;;20.90;49.94
8501;BME280;4288;48.484;10.024;2023-04-15T10:14:34;94605.13;;;20.97;49.85
8501;BME280;4288;48.484;10.024;2023-04-15T10:17:04;94622.66;;;20.96;49.81
8501;BME280;4288;48.484;10.024;2023-04-15T10:19:35;94626.84;;;20.97;49.49
8501;BME280;4288;48.484;10.024;2023-04-15T10:22:03;94620.22;;;20.98;49.89
8501;BME280;4288;48.484;10.024;2023-04-15T10:24:31;94625.19;;;21.00;49.55
8501;BME280;4288;48.484;10.024;2023-04-15T10:27:00;94622.47;;;21.00;49.83
8501;BME280;4288;48.484;10.024;2023-04-15T10:29:29;94628.97;;;21.02;49.73
8501;BME280;4288;48.484;10.024;2023-04-15T10:31:58;94621.81;;;21.05;49.83
8501;BME280;4288;48.484;10.024;2023-04-15T10:34:26;94617.44;;;21.07;49.58
8501;BME280;4288;48.484;10.024;2023-04-15T10:36:54;94626.16;;;21.11;49.74
8501;BME280;4288;48.484;10.024;2023-04-15T10:39:38;94624.91;;;21.12;49.66
8501;BME280;4288;48.484;10.024;2023-04-15T10:42:08;94619.19;;;21.10;49.63
8501;BME280;4288;48.484;10.024;2023-04-15T10:44:36;94626.91;;;21.12;49.53
8501;BME280;4288;48.484;10.024;2023-04-15T10:47:12;94623.78;;;21.19;49.46
8501;BME280;4288;48.484;10.024;2023-04-15T10:49:44;94631.75;;;21.22;49.30
8501;BME280;4288;48.484;10.024;2023-04-15T10:52:11;94626.50;;;21.19;49.69
8501;BME280;4288;48.484;10.024;2023-04-15T10:54:40;94628.94;;;21.17;49.96
8501;BME280;4288;48.484;10.024;2023-04-15T10:57:14;94629.72;;;21.17;49.65
8501;BME280;4288;48.484;10.024;2023-04-15T11:00:08;94628.03;;;21.20;49.46
8501;BME280;4288;48.484;10.024;2023-04-15T11:02:45;94638.13;;;21.19;49.50
8501;BME280;4288;48.484;10.024;2023-04-15T11:05:13;94629.50;;;21.21;49.85
8501;BME280;4288;48.484;10.024;2023-04-15T11:07:52;94632.78;;;21.25;49.57
8501;BME280;4288;48.484;10.024;2023-04-15T11:10:51;94632.22;;;21.21;49.95
8501;BME280;4288;48.484;10.024;2023-04-15T11:13:27;94644.78;;;21.18;50.13
8501;BME280;4288;48.484;10.024;2023-04-15T11:16:00;94639.53;;;21.15;50.04
8501;BME280;4288;48.484;10.024;2023-04-15T11:18:30;94636.06;;;21.14;49.96
8501;BME280;4288;48.484;10.024;2023-04-15T11:21:00;94640.50;;;21.12;50.17
8501;BME280;4288;48.484;10.024;2023-04-15T11:23:31;94636.44;;;21.07;50.15
8501;BME280;4288;48.484;10.024;2023-04-15T11:26:00;94645.84;;;21.06;50.31
8501;BME280;4288;48.484;10.024;2023-04-15T11:28:30;94652.19;;;21.03;50.16
8501;BME280;4288;48.484;10.024;2023-04-15T11:31:06;94667.44;;;21.01;50.24
8501;BME280;4288;48.484;10.024;2023-04-15T11:33:35;94665.66;;;20.98;50.43
8501;BME280;4288;48.484;10.024;2023-04-15T11:36:03;94671.44;;;20.76;49.72
8501;BME280;4288;48.484;10.024;2023-04-15T11:38:30;94687.91;;;20.73;50.39
8501;BME280;4288;48.484;10.024;2023-04-15T11:40:57;94693.53;;;20.69;49.83
8501;BME280;4288;48.484;10.024;2023-04-15T11:43:24;94688.25;;;20.66;50.07
8501;BME280;4288;48.484;10.024;2023-04-15T11:45:55;94684.22;;;20.61;50.41
8501;BME280;4288;48.484;10.024;2023-04-15T11:48:24;94690.56;;;20.58;50.23
8501;BME280;4288;48.484;10.024;2023-04-15T11:50:54;94688.78;;;20.55;49.84
8501;BME280;4288;48.484;10.024;2023-04-15T11:53:22;94691.63;;;20.61;49.99
8501;BME280;4288;48.484;10.024;2023-04-15T11:55:51;94689.94;;;20.63;49.92
8501;BME280;4288;48.484;10.024;2023-04-15T11:58:20;94702.28;;;20.64;50.01
8501;BME280;4288;48.484;10.024;2023-04-15T12:00:50;94701.53;;;20.64;50.05
8501;BME280;4288;48.484;10.024;2023-04-15T12:03:26;94712.88;;;20.62;50.27
8501;BME280;4288;48.484;10.024;2023-04-15T12:06:14;94726.34;;;20.57;50.29
8501;BME280;4288;48.484;10.024;2023-04-15T12:09:02;94723.63;;;20.57;50.63
8501;BME280;4288;48.484;10.024;2023-04-15T12:11:35;94730.72;;;20.54;50.94
8501;BME280;4288;48.484;10.024;2023-04-15T12:14:07;94726.53;;;20.53;50.62
8501;BME280;4288;48.484;10.024;2023-04-15T12:16:37;94732.25;;;20.55;50.41
8501;BME280;4288;48.484;10.024;2023-04-15T12:19:09;94733.91;;;20.53;50.37
8501;BME280;4288;48.484;10.024;2023-04-15T12:21:39;94739.63;;;20.55;50.59
8501;BME280;4288;48.484;10.024;2023-04-15T12:24:09;94732.25;;;20.55;50.90
8501;BME280;4288;48.484;10.024;2023-04-15T12:26:43;94722.44;;;20.58;50.91
8501;BME280;4288;48.484;10.024;2023-04-15T12:29:12;94723.44;;;20.60;51.21
8501;BME280;4288;48.484;10.024;2023-04-15T12:31:50;94721.78;;;20.63;51.05
8501;BME280;4288;48.484;10.024;2023-04-15T12:34:27;94727.97;;;20.63;51.06
8501;BME280;4288;48.484;10.024;2023-04-15T12:36:55;94725.06;;;20.67;51.17
8501;BME280;4288;48.484;10.024;2023-04-15T12:39:24;94726.56;;;20.68;51.27
8501;BME280;4288;48.484;10.024;2023-04-15T12:41:51;94731.25;;;20.67;51.23
8501;BME280;4288;48.484;10.024;2023-04-15T12:44:18;94730.50;;;20.67;51.49
8501;BME280;4288;48.484;10.024;2023-04-15T12:46:46;94733.97;;;20.67;51.47
8501;BME280;4288;48.484;10.024;2023-04-15T12:49:13;94731.69;;;20.66;51.27
8501;BME280;4288;48.484;10.024;2023-04-15T12:51:42;94729.91;;;20.63;51.70
8501;BME280;4288;48.484;10.024;2023-04-15T12:54:10;94733.09;;;20.61;51.38
8501;BME280;4288;48.484;10.024;2023-04-15T12:56:37;94734.00;;;20.58;51.66
8501;BME280;4288;48.484;10.024;2023-04-15T12:59:04;94739.72;;;20.60;51.47
8501;BME280;4288;48.484;10.024;2023-04-15T13:01:32;94745.16;;;20.60;52.19
8501;BME280;4288;48.484;10.024;2023-04-15T13:03:59;94753.31;;;20.60;51.77
8501;BME280;4288;48.484;10.024;2023-04-15T13:06:26;94744.25;;;20.63;52.04
8501;BME280;4288;48.484;10.024;2023-04-15T13:08:55;94751.16;;;20.64;52.16
8501;BME280;4288;48.484;10.024;2023-04-15T13:11:22;94753.59;;;20.62;51.88
8501;BME280;4288;48.484;10.024;2023-04-15T13:13:50;94753.97;;;20.55;51.71
8501;BME280;4288;48.484;10.024;2023-04-15T13:16:18;94757.66;;;20.43;52.40
8501;BME280;4288;48.484;10.024;2023-04-15T13:18:45;94768.03;;;20.45;52.35